Time;durP1;ratioP1;P1;durP2;ratioP2;P2;SDS_P1;SDS_P2;PMS_P1;PMS_P2;Temp;Humidity;BMP_temperature;BMP_pressure;BME280_temperature;BME280_humidity;BME280_pressure;Samples;Min_cycle;Max_cycle;Signal;HPM_P1;HPM_P2
2022/09/02 00:02:04;;;;;;;1.10;0.15;;;;;;;6.95;85.33;100861.09;10586111;28;20031;-81
2022/09/02 00:07:06;;;;;;;0.50;0.20;;;;;;;6.94;85.48;100855.88;10583349;28;20036;-81
2022/09/02 00:12:09;;;;;;;0.38;0.10;;;;;;;6.89;85.25;100862.09;10574123;28;20417;-81
2022/09/02 00:17:45;;;;;;;0.20;0.20;;;;;;;6.87;85.63;100858.78;10600409;28;20040;-81
2022/09/02 00:22:47;;;;;;;0.73;0.10;;;;;;;6.85;84.85;100860.94;10583858;28;20039;-81
2022/09/02 00:27:49;;;;;;;0.17;0.10;;;;;;;6.83;84.93;100863.09;10583240;28;20051;-81
2022/09/02 00:33:17;;;;;;;0.10;0.10;;;;;;;6.83;84.95;100854.91;10577890;28;20556;-81
2022/09/02 00:38:44;;;;;;;0.30;0.30;;;;;;;6.79;85.54;100864.69;10578092;28;20036;-81
2022/09/02 00:43:49;;;;;;;0.30;0.30;;;;;;;6.80;84.86;100858.16;10571333;28;20040;-81
2022/09/02 00:49:27;;;;;;;0.20;0.20;;;;;;;6.78;85.32;100846.66;10566629;28;20040;-80
2022/09/02 00:54:31;;;;;;;0.13;0.13;;;;;;;6.78;85.04;100854.84;10579496;28;20051;-80
2022/09/02 00:59:40;;;;;;;0.20;0.20;;;;;;;6.78;84.95;100863.03;10585397;28;20481;-80
2022/09/02 01:04:45;;;;;;;0.60;0.20;;;;;;;6.75;85.37;100863.50;10597648;27;20036;-80
2022/09/02 01:09:48;;;;;;;0.20;0.20;;;;;;;6.75;84.69;100860.78;10590851;28;20044;-80
2022/09/02 01:14:51;;;;;;;0.52;0.10;;;;;;;6.70;85.06;100863.44;10602582;28;20399;-80
2022/09/02 01:20:03;;;;;;;1.98;0.32;;;;;;;6.74;84.84;100855.59;10587932;28;20059;-80
2022/09/02 01:25:15;;;;;;;0.40;0.25;;;;;;;6.76;85.09;100859.72;10581274;28;20044;-81
2022/09/02 01:30:22;;;;;;;0.10;0.10;;;;;;;6.77;85.00;100868.72;10602977;28;20386;-80
2022/09/02 01:35:25;;;;;;;0.20;0.20;;;;;;;6.81;85.03;100861.69;10596658;28;20044;-80
2022/09/02 01:40:29;;;;;;;0.10;0.10;;;;;;;6.83;84.63;100859.53;10599370;27;20046;-80
2022/09/02 01:45:34;;;;;;;0.10;0.10;;;;;;;6.82;84.57;100868.81;10585727;28;20048;-80
2022/09/02 01:50:38;;;;;;;0.10;0.10;;;;;;;6.84;84.82;100870.22;10579920;28;20798;-80
2022/09/02 01:55:41;;;;;;;0.47;0.15;;;;;;;6.82;84.54;100869.63;10561213;28;20512;-80
2022/09/02 02:00:44;;;;;;;0.13;0.08;;;;;;;6.84;85.13;100872.09;10583365;28;20421;-80
2022/09/02 02:05:46;;;;;;;0.85;0.20;;;;;;;6.81;84.86;100875.34;10592431;28;20043;-80
2022/09/02 02:11:21;;;;;;;0.55;0.20;;;;;;;6.81;84.63;100881.63;10583965;28;20043;-80
2022/09/02 02:16:27;;;;;;;0.05;0.03;;;;;;;6.77;84.95;100880.47;10599283;28;20048;-80
2022/09/02 02:21:29;;;;;;;0.10;0.10;;;;;;;6.73;85.18;100890.22;10581199;28;20051;-80
2022/09/02 02:26:35;;;;;;;0.10;0.10;;;;;;;6.72;86.02;100876.81;10573166;28;20036;-80
2022/09/02 02:31:40;;;;;;;0.22;0.20;;;;;;;6.67;85.84;100893.94;10581307;28;20039;-80
2022/09/02 02:36:43;;;;;;;0.73;0.20;;;;;;;6.66;86.50;100892.28;10594095;28;20035;-80
2022/09/02 02:41:46;;;;;;;1.38;0.20;;;;;;;6.66;86.19;100897.75;10553053;28;20045;-80
2022/09/02 02:46:49;;;;;;;0.40;0.10;;;;;;;6.63;86.46;100900.97;10592890;28;20047;-80
2022/09/02 02:51:52;;;;;;;0.38;0.15;;;;;;;6.64;86.26;100903.47;10570956;28;20051;-80
2022/09/02 02:56:56;;;;;;;0.10;0.10;;;;;;;6.63;86.48;100912.72;10580073;28;20508;-80
2022/09/02 03:01:58;;;;;;;0.75;0.20;;;;;;;6.59;86.76;100916.97;10605416;28;20047;-80
2022/09/02 03:07:02;;;;;;;1.85;0.20;;;;;;;6.57;86.70;100905.50;10597221;28;20031;-81
2022/09/02 03:12:34;;;;;;;0.85;0.25;;;;;;;6.58;87.54;100898.16;10598908;28;20532;-80
2022/09/02 03:17:37;;;;;;;0.13;0.13;;;;;;;6.59;86.92;100899.78;10588990;28;20047;-79
2022/09/02 03:22:42;;;;;;;0.40;0.20;;;;;;;6.59;87.43;100908.81;10569696;28;20058;-80
2022/09/02 03:27:44;;;;;;;0.32;0.30;;;;;;;6.60;87.90;100907.75;10572100;28;20494;-79
2022/09/02 03:32:52;;;;;;;1.77;0.30;;;;;;;6.60;87.34;100915.94;10581806;28;20044;-80
2022/09/02 03:37:55;;;;;;;0.40;0.20;;;;;;;6.63;88.08;100915.44;10551879;28;20059;-80
2022/09/02 03:43:00;;;;;;;0.20;0.20;;;;;;;6.63;88.43;100918.16;10573578;28;20047;-80
2022/09/02 03:48:03;;;;;;;0.30;0.28;;;;;;;6.64;87.77;100921.72;10590949;28;20051;-81
2022/09/02 03:53:10;;;;;;;0.57;0.32;;;;;;;6.69;88.11;100932.69;10586931;28;20039;-80
2022/09/02 03:58:13;;;;;;;1.25;0.15;;;;;;;6.71;88.19;100930.53;10578079;28;20051;-80
2022/09/02 04:03:16;;;;;;;0.85;0.10;;;;;;;6.77;87.88;100931.44;10607915;28;20059;-80
2022/09/02 04:08:20;;;;;;;1.10;0.32;;;;;;;6.82;87.62;100935.09;10593380;28;20051;-82
2022/09/02 04:13:23;;;;;;;1.45;0.28;;;;;;;6.82;88.11;100937.00;10548525;28;20043;-81
2022/09/02 04:18:26;;;;;;;0.98;0.22;;;;;;;6.86;87.70;100949.06;10606339;28;20133;-80
2022/09/02 04:23:29;;;;;;;0.30;0.30;;;;;;;6.94;87.42;100954.06;10576363;28;20414;-80
2022/09/02 04:28:34;;;;;;;1.27;0.30;;;;;;;6.93;87.00;100955.16;10585149;28;20521;-80
2022/09/02 04:33:37;;;;;;;0.28;0.28;;;;;;;7.01;87.19;100956.66;10548490;28;20052;-82
2022/09/02 04:38:39;;;;;;;2.00;0.52;;;;;;;7.07;87.36;100961.09;10557458;28;20084;-83
2022/09/02 04:43:43;;;;;;;1.00;0.38;;;;;;;7.06;86.66;100959.44;10562722;28;20044;-77
2022/09/02 04:48:47;;;;;;;0.40;0.22;;;;;;;7.17;87.55;100966.72;10579173;28;20059;-78
2022/09/02 04:53:52;;;;;;;1.45;0.40;;;;;;;7.20;86.60;100972.50;10572617;28;20040;-78
2022/09/02 04:58:55;;;;;;;0.30;0.30;;;;;;;7.32;86.11;100971.56;10571707;28;20039;-78
2022/09/02 05:03:58;;;;;;;0.88;0.30;;;;;;;7.43;85.95;100979.63;10555088;28;20047;-78
2022/09/02 05:09:07;;;;;;;1.35;0.40;;;;;;;7.57;86.53;100978.19;10553819;28;20036;-77
2022/09/02 05:14:12;;;;;;;0.20;0.20;;;;;;;7.91;85.35;100971.78;10571115;28;20051;-77
2022/09/02 05:19:14;;;;;;;0.40;0.30;;;;;;;8.09;84.45;100983.22;10588272;28;20039;-77
2022/09/02 05:24:22;;;;;;;1.07;0.47;;;;;;;8.28;83.22;100985.59;10569914;28;20044;-77
2022/09/02 05:29:25;;;;;;;1.55;0.47;;;;;;;8.41;82.40;100987.97;10570558;28;20046;-77
2022/09/02 05:34:29;;;;;;;0.30;0.30;;;;;;;8.67;82.49;100992.56;10569926;28;20055;-78
2022/09/02 05:39:34;;;;;;;1.02;0.30;;;;;;;8.93;81.76;100990.88;10570439;28;20513;-78
2022/09/02 05:44:37;;;;;;;0.50;0.30;;;;;;;9.39;79.73;100995.88;10570889;28;20040;-83
2022/09/02 05:49:41;;;;;;;2.05;0.55;;;;;;;9.85;79.46;100997.75;10497383;28;1959373;-85
2022/09/02 05:54:48;;;;;;;0.85;0.40;;;;;;;9.90;77.21;101002.44;10573386;28;20047;-84
2022/09/02 05:59:55;;;;;;;0.40;0.40;;;;;;;9.74;76.69;100997.97;10571981;28;20043;-84
2022/09/02 06:05:01;;;;;;;0.93;0.50;;;;;;;9.46;76.53;101016.44;10571996;28;20043;-84
2022/09/02 06:10:04;;;;;;;3.08;0.45;;;;;;;9.34;77.30;101024.84;10572246;28;20067;-84
2022/09/02 06:15:09;;;;;;;1.90;0.60;;;;;;;9.47;77.02;101020.00;10571083;28;20410;-84
2022/09/02 06:20:13;;;;;;;1.48;0.50;;;;;;;9.43;77.55;101022.47;10570495;28;20060;-84
2022/09/02 06:25:19;;;;;;;0.40;0.40;;;;;;;9.38;77.47;101029.84;10555783;28;20076;-84
2022/09/02 06:30:23;;;;;;;1.25;0.40;;;;;;;9.29;78.28;101027.56;10556544;28;20036;-83
2022/09/02 06:35:26;;;;;;;0.82;0.40;;;;;;;9.19;78.46;101037.59;10570991;28;20051;-84
2022/09/02 06:40:28;;;;;;;0.47;0.40;;;;;;;9.14;78.02;101035.66;10572184;28;20048;-83
2022/09/02 06:45:32;;;;;;;1.27;0.50;;;;;;;9.10;77.78;101039.19;10567026;28;20047;-83
2022/09/02 06:50:40;;;;;;;0.50;0.50;;;;;;;9.13;78.27;101055.09;10553351;28;20514;-83
2022/09/02 06:55:43;;;;;;;0.30;0.30;;;;;;;9.01;78.46;101058.00;10569835;28;20529;-83
2022/09/02 07:00:46;;;;;;;1.98;0.73;;;;;;;8.97;77.32;101057.69;10569493;28;20036;-84
2022/09/02 07:06:09;;;;;;;0.40;0.40;;;;;;;8.96;77.85;101066.16;10569716;28;20039;-84
2022/09/02 07:11:18;;;;;;;0.60;0.40;;;;;;;9.05;78.28;101072.84;10551693;28;20040;-83
2022/09/02 07:16:22;;;;;;;0.65;0.32;;;;;;;9.05;77.63;101067.38;10554317;28;20039;-83
2022/09/02 07:21:24;;;;;;;0.75;0.30;;;;;;;9.13;77.98;101077.81;10566185;28;20040;-77
2022/09/02 07:26:28;;;;;;;0.60;0.40;;;;;;;9.31;77.73;101079.34;10550828;28;20047;-76
2022/09/02 07:31:31;;;;;;;0.90;0.30;;;;;;;9.53;76.58;101084.69;10563595;28;20062;-76
2022/09/02 07:36:35;;;;;;;0.85;0.40;;;;;;;9.56;76.62;101076.78;10551516;28;20502;-77
2022/09/02 07:41:39;;;;;;;0.60;0.52;;;;;;;9.76;75.77;101088.97;10549856;28;20433;-77
2022/09/02 07:46:42;;;;;;;1.95;0.38;;;;;;;10.03;74.93;101088.84;10551374;28;20556;-76
2022/09/02 07:51:48;;;;;;;1.27;0.40;;;;;;;10.14;73.80;101093.28;10568252;28;20052;-76
2022/09/02 07:56:51;;;;;;;2.53;0.50;;;;;;;10.15;74.06;101101.25;10534728;28;20102;-76
2022/09/02 08:01:54;;;;;;;0.88;0.38;;;;;;;10.09;72.52;101093.28;10563816;28;20044;-75
2022/09/02 08:06:58;;;;;;;2.35;0.77;;;;;;;9.96;71.81;101103.63;10568121;28;20534;-75
2022/09/02 08:12:26;;;;;;;1.63;0.45;;;;;;;9.97;71.55;101105.28;10568141;28;20052;-75
2022/09/02 08:17:29;;;;;;;1.27;0.40;;;;;;;10.22;71.45;101103.78;10529537;28;20056;-75
2022/09/02 08:22:34;;;;;;;0.73;0.50;;;;;;;10.25;70.54;101112.31;10561243;28;20044;-76
2022/09/02 08:27:38;;;;;;;0.77;0.50;;;;;;;10.18;70.12;101103.44;10542868;28;20040;-75
2022/09/02 08:32:44;;;;;;;2.75;0.60;;;;;;;10.16;70.00;101113.03;10565965;28;20431;-75
2022/09/02 08:37:46;;;;;;;1.52;0.60;;;;;;;10.11;70.50;101119.34;10566680;28;20406;-75
2022/09/02 08:42:54;;;;;;;0.38;0.30;;;;;;;10.06;68.04;101126.69;10573249;28;20418;-75
2022/09/02 08:48:05;;;;;;;0.40;0.40;;;;;;;10.04;68.83;101137.09;10575277;28;20674;-75
2022/09/02 08:53:28;;;;;;;0.93;0.40;;;;;;;10.11;67.67;101148.66;10573861;28;20047;-75
2022/09/02 08:58:38;;;;;;;0.30;0.30;;;;;;;10.14;67.37;101148.13;10568335;28;20035;-77
2022/09/02 09:04:22;;;;;;;1.17;0.40;;;;;;;10.26;66.84;101160.59;10574309;28;20044;-76
2022/09/02 09:09:49;;;;;;;0.95;0.40;;;;;;;10.32;66.42;101166.91;10554757;28;20050;-76
2022/09/02 09:15:20;;;;;;;;;;;;;;;10.27;65.79;101173.22;10574514;28;20048;-75
2022/09/02 09:20:33;;;;;;;0.47;0.38;;;;;;;10.29;65.89;101181.16;10569611;28;19927;-76
2022/09/02 09:25:40;;;;;;;0.67;0.33;;;;;;;10.23;65.56;101187.69;10569506;28;20036;-75
2022/09/02 09:30:42;;;;;;;0.82;0.77;;;;;;;10.32;65.11;101186.13;10571476;28;20062;-74
2022/09/02 09:35:52;;;;;;;0.70;0.70;;;;;;;10.52;63.98;101196.38;10579299;28;20059;-74
2022/09/02 09:41:13;;;;;;;0.88;0.88;;;;;;;10.58;63.95;101190.63;10576053;28;20047;-78
2022/09/02 09:46:31;;;;;;;0.82;0.50;;;;;;;10.68;62.83;101198.09;10568563;28;20406;-74
2022/09/02 09:51:33;;;;;;;0.95;0.50;;;;;;;10.73;63.37;101208.25;10565772;28;20044;-74
2022/09/02 09:56:39;;;;;;;0.70;0.30;;;;;;;10.71;62.49;101211.28;10561234;28;20418;-74
2022/09/02 10:01:49;;;;;;;1.13;0.47;;;;;;;10.81;61.59;101207.75;10587530;28;20051;-74
2022/09/02 10:06:55;;;;;;;1.17;0.47;;;;;;;10.94;61.76;101204.50;10554940;28;20044;-74
2022/09/02 10:12:11;;;;;;;1.13;1.02;;;;;;;11.00;60.49;101206.16;10569910;28;20540;-73
2022/09/02 10:17:17;;;;;;;0.93;0.55;;;;;;;11.23;60.42;101209.50;10571171;28;20043;-76
2022/09/02 10:22:28;;;;;;;4.50;0.98;;;;;;;11.34;61.15;101211.19;10565057;28;20430;-76
2022/09/02 10:28:12;;;;;;;0.63;0.50;;;;;;;11.45;59.62;101208.19;10570367;28;20036;-75
2022/09/02 10:33:44;;;;;;;1.85;0.55;;;;;;;11.70;59.19;101203.81;10567715;28;20039;-75
2022/09/02 10:38:47;;;;;;;0.68;0.50;;;;;;;11.77;58.88;101220.84;10529004;28;20040;-75
2022/09/02 10:43:52;;;;;;;0.40;0.40;;;;;;;11.66;57.83;101211.78;10529432;28;20045;-75
2022/09/02 10:49:19;;;;;;;3.00;0.93;;;;;;;11.66;58.15;101216.47;10578951;28;20044;-76
2022/09/02 10:54:38;;;;;;;;;;;;;;;11.68;57.81;101217.81;10570690;28;20048;-75
2022/09/02 11:00:07;;;;;;;0.80;0.50;;;;;;;11.70;56.88;101220.31;10549514;28;19920;-75
2022/09/02 11:05:19;;;;;;;0.50;0.50;;;;;;;11.90;57.35;101225.00;10543289;28;20056;-75
2022/09/02 11:10:29;;;;;;;1.20;0.73;;;;;;;12.02;57.95;101222.81;10565330;28;20036;-75
2022/09/02 11:15:46;;;;;;;0.70;0.68;;;;;;;12.21;58.76;101223.88;10565984;28;20036;-75
2022/09/02 11:20:54;;;;;;;1.05;0.55;;;;;;;12.21;57.75;101220.31;10568562;28;20050;-75
2022/09/02 11:26:04;;;;;;;0.40;0.40;;;;;;;12.13;57.76;101238.19;10568254;28;20076;-73
2022/09/02 11:31:16;;;;;;;0.95;0.38;;;;;;;12.03;56.03;101241.78;10568478;28;20043;-73
2022/09/02 11:36:18;;;;;;;0.40;0.40;;;;;;;11.97;54.99;101234.59;10566825;28;20048;-73
2022/09/02 11:41:39;;;;;;;1.25;0.30;;;;;;;11.95;54.88;101234.06;10561563;28;20044;-73
2022/09/02 11:47:00;;;;;;;1.83;0.73;;;;;;;11.97;56.45;101234.59;10565766;28;20150;-73
2022/09/02 11:52:05;;;;;;;1.45;0.52;;;;;;;12.10;59.22;101235.97;10549993;28;20441;-73
2022/09/02 11:57:12;;;;;;;1.85;0.40;;;;;;;12.01;60.61;101243.16;10567432;28;20530;-73
2022/09/02 12:02:30;;;;;;;0.60;0.38;;;;;;;11.99;61.75;101237.94;10562748;28;20044;-77
2022/09/02 12:07:46;;;;;;;0.90;0.65;;;;;;;12.12;62.71;101236.53;10563856;28;20072;-75
2022/09/02 12:12:48;;;;;;;0.38;0.35;;;;;;;12.14;62.02;101248.06;10560840;28;20040;-73
2022/09/02 12:17:51;;;;;;;0.70;0.60;;;;;;;11.90;63.40;101266.25;10573678;28;20054;-76
2022/09/02 12:22:53;;;;;;;0.70;0.52;;;;;;;11.38;63.91;101265.31;10574334;28;20118;-77
2022/09/02 12:28:38;;;;;;;2.15;1.15;;;;;;;11.13;64.35;101279.00;10554249;28;20040;-76
2022/09/02 12:33:43;;;;;;;0.40;0.40;;;;;;;10.87;64.23;101275.31;10558725;28;20569;-76
2022/09/02 12:38:50;;;;;;;0.55;0.40;;;;;;;10.63;65.61;101276.84;10588551;27;20042;-77
2022/09/02 12:43:57;;;;;;;0.47;0.47;;;;;;;10.60;66.36;101274.63;10567430;28;20056;-76
2022/09/02 12:49:26;;;;;;;0.60;0.60;;;;;;;10.64;66.15;101286.72;10551578;28;20048;-76
2022/09/02 12:54:37;;;;;;;0.38;0.30;;;;;;;10.56;67.80;101266.91;10553432;28;20509;-76
2022/09/02 12:59:40;;;;;;;0.90;0.45;;;;;;;10.53;68.28;101272.94;10571647;28;20043;-74
2022/09/02 13:05:05;;;;;;;1.40;0.70;;;;;;;10.47;69.40;101278.66;10538624;28;20040;-73
2022/09/02 13:10:20;;;;;;;0.50;0.50;;;;;;;10.51;68.91;101283.34;10570888;28;20048;-73
2022/09/02 13:15:32;;;;;;;3.50;0.70;;;;;;;10.52;68.91;101282.25;10570924;28;20510;-74
2022/09/02 13:20:58;;;;;;;1.58;0.70;;;;;;;10.54;68.44;101277.31;10573135;28;20047;-74
2022/09/02 13:26:25;;;;;;;1.30;0.70;;;;;;;10.69;68.04;101281.25;10565598;28;20550;-76
2022/09/02 13:31:28;;;;;;;1.02;0.57;;;;;;;10.72;67.20;101275.22;10570115;28;20560;-76
2022/09/02 13:36:34;;;;;;;1.17;0.80;;;;;;;10.77;67.26;101287.09;10572268;28;20438;-75
2022/09/02 13:41:37;;;;;;;0.98;0.47;;;;;;;10.80;67.41;101283.78;10568674;28;20043;-75
2022/09/02 13:46:54;;;;;;;1.65;0.73;;;;;;;10.79;68.48;101289.56;10562972;28;20039;-76
2022/09/02 13:51:56;;;;;;;3.63;0.70;;;;;;;10.83;68.75;101282.44;10558521;28;20083;-76
2022/09/02 13:57:04;;;;;;;1.30;0.65;;;;;;;10.87;69.78;101286.28;10570400;28;20048;-76
2022/09/02 14:02:33;;;;;;;2.05;0.70;;;;;;;10.76;70.41;101290.06;10570661;28;20054;-74
2022/09/02 14:07:53;;;;;;;0.95;0.60;;;;;;;10.73;71.19;101293.34;10562730;28;20044;-75
2022/09/02 14:12:56;;;;;;;1.05;0.80;;;;;;;10.65;71.40;101296.59;10565655;28;20041;-76
2022/09/02 14:18:21;;;;;;;1.13;1.02;;;;;;;10.62;72.08;101289.75;10556616;28;20059;-76
2022/09/02 14:23:25;;;;;;;1.75;0.90;;;;;;;10.56;72.91;101288.84;10563557;28;20521;-76
2022/09/02 14:28:32;;;;;;;1.10;1.00;;;;;;;10.57;72.28;101289.69;10572174;28;20043;-76
2022/09/02 14:33:34;;;;;;;2.55;1.20;;;;;;;10.53;71.90;101283.91;10571087;28;20052;-76
2022/09/02 14:38:49;;;;;;;4.03;1.80;;;;;;;10.48;72.11;101283.06;10569838;28;20051;-76
2022/09/02 14:43:54;;;;;;;5.13;1.75;;;;;;;10.38;71.81;101311.25;10570262;28;20040;-76
2022/09/02 14:49:05;;;;;;;0.40;0.40;;;;;;;9.94;71.22;101313.34;10571412;28;20044;-76
2022/09/02 14:54:07;;;;;;;0.70;0.50;;;;;;;9.53;73.36;101301.13;10566003;28;20051;-76
2022/09/02 14:59:27;;;;;;;0.57;0.57;;;;;;;9.19;74.55;101303.22;10571144;28;20062;-76
2022/09/02 15:04:34;;;;;;;0.80;0.60;;;;;;;9.06;75.18;101298.97;10571355;28;20048;-76
2022/09/02 15:09:36;;;;;;;1.43;0.50;;;;;;;9.05;76.76;101297.31;10570533;28;20044;-76
2022/09/02 15:14:38;;;;;;;1.45;0.60;;;;;;;9.05;77.26;101295.41;10570984;28;20047;-76
2022/09/02 15:19:40;;;;;;;1.83;0.95;;;;;;;9.04;77.82;101292.94;10569951;28;20043;-76
2022/09/02 15:24:43;;;;;;;3.10;1.23;;;;;;;8.98;78.28;101286.53;10568161;28;20077;-76
2022/09/02 15:29:45;;;;;;;5.60;1.77;;;;;;;8.94;78.88;101298.25;10569962;28;20043;-76
2022/09/02 15:34:48;;;;;;;5.88;3.10;;;;;;;8.87;79.92;101289.41;10569179;28;20506;-76
2022/09/02 15:39:50;;;;;;;4.70;2.63;;;;;;;8.79;81.21;101303.53;10568731;28;20048;-76
2022/09/02 15:44:52;;;;;;;2.70;1.80;;;;;;;8.73;81.22;101303.47;10569457;28;20387;-76
2022/09/02 15:49:56;;;;;;;2.30;1.33;;;;;;;8.76;81.22;101296.66;10571995;28;20059;-75
2022/09/02 15:54:58;;;;;;;2.22;1.80;;;;;;;8.77;81.39;101299.13;10577063;28;20047;-75
2022/09/02 16:00:00;;;;;;;3.55;1.83;;;;;;;8.82;81.29;101294.81;10578220;28;20044;-76
2022/09/02 16:05:02;;;;;;;3.53;1.50;;;;;;;8.84;82.07;101295.38;10578479;28;20044;-76
2022/09/02 16:10:05;;;;;;;2.72;1.80;;;;;;;8.83;82.33;101291.81;10577696;28;20086;-76
2022/09/02 16:15:08;;;;;;;2.65;1.80;;;;;;;8.81;81.46;101296.72;10538251;28;20051;-76
2022/09/02 16:20:10;;;;;;;4.53;2.80;;;;;;;8.79;81.43;101298.06;10534975;28;20059;-76
2022/09/02 16:25:12;;;;;;;4.13;2.03;;;;;;;8.75;81.84;101306.78;10568315;28;20058;-76
2022/09/02 16:30:15;;;;;;;4.07;2.28;;;;;;;8.71;82.06;101305.63;10575779;28;20391;-76
2022/09/02 16:35:17;;;;;;;3.65;2.10;;;;;;;8.68;81.04;101308.88;10576541;28;20105;-76
2022/09/02 16:40:20;;;;;;;4.45;1.83;;;;;;;8.63;80.67;101307.94;10576554;28;20048;-76
2022/09/02 16:45:22;;;;;;;2.92;1.85;;;;;;;8.55;80.77;101317.44;10574862;28;20039;-76
2022/09/02 16:50:24;;;;;;;2.67;1.70;;;;;;;8.49;80.59;101306.66;10566137;28;20070;-76
2022/09/02 16:55:26;;;;;;;3.53;2.00;;;;;;;8.46;81.53;101307.97;10575953;28;20046;-76
2022/09/02 17:00:29;;;;;;;4.00;1.77;;;;;;;8.39;81.20;101312.81;10575240;28;20052;-76
2022/09/02 17:05:31;;;;;;;3.65;2.20;;;;;;;8.35;81.46;101303.47;10575350;28;20548;-76
2022/09/02 17:10:33;;;;;;;3.20;1.92;;;;;;;8.32;82.25;101312.09;10574365;28;20048;-76
2022/09/02 17:15:36;;;;;;;4.03;2.13;;;;;;;8.28;82.15;101314.50;10575090;28;20040;-76
2022/09/02 17:20:39;;;;;;;2.38;2.17;;;;;;;8.24;82.71;101310.63;10575107;28;20039;-76
2022/09/02 17:25:44;;;;;;;6.63;2.97;;;;;;;8.21;82.60;101318.50;10567958;28;20524;-76
2022/09/02 17:30:46;;;;;;;3.53;2.30;;;;;;;8.15;83.06;101318.41;10574260;28;20502;-76
2022/09/02 17:35:59;;;;;;;3.65;2.50;;;;;;;8.15;82.83;101321.13;10574274;28;20047;-76
2022/09/02 17:46:22;;;;;;;5.28;2.35;;;;;;;8.16;82.17;101333.75;10573534;28;20052;-76
2022/09/02 17:51:25;;;;;;;5.13;2.35;;;;;;;8.15;82.64;101334.81;10556072;28;20056;-76
2022/09/02 17:56:36;;;;;;;5.85;2.33;;;;;;;8.15;82.16;101334.81;10551542;28;20048;-77
2022/09/02 18:01:54;;;;;;;4.18;2.60;;;;;;;8.14;82.35;101344.09;10539364;28;20461;-77
2022/09/02 18:07:04;;;;;;;4.03;2.78;;;;;;;8.07;81.44;101343.44;10572451;28;20036;-77
2022/09/02 18:12:11;;;;;;;4.88;2.92;;;;;;;8.02;82.54;101340.63;10554801;28;20044;-77
2022/09/02 18:17:19;;;;;;;6.68;3.25;;;;;;;7.98;82.04;101344.91;10572864;28;20032;-76
2022/09/02 18:22:34;;;;;;;6.13;3.80;;;;;;;7.92;82.09;101343.16;10572026;28;20051;-77
2022/09/02 18:27:54;;;;;;;8.35;4.43;;;;;;;7.87;82.77;101354.00;10572252;28;20044;-76
2022/09/02 18:32:59;;;;;;;6.35;4.00;;;;;;;7.83;82.75;101350.94;10565921;28;20040;-76
2022/09/02 18:38:37;;;;;;;6.75;4.25;;;;;;;7.80;82.91;101348.69;10570482;28;20059;-76
2022/09/02 18:44:07;;;;;;;6.40;4.10;;;;;;;7.91;82.88;101344.25;10570599;28;20055;-76
2022/09/02 18:49:11;;;;;;;9.80;4.03;;;;;;;8.11;83.32;101330.91;10528701;28;20399;-77
2022/09/02 18:54:24;;;;;;;8.50;3.97;;;;;;;8.25;83.92;101338.78;10551409;28;20040;-77
2022/09/02 18:59:34;;;;;;;6.75;3.55;;;;;;;8.25;83.48;101338.78;10570401;28;20052;-77
2022/09/02 19:04:37;;;;;;;6.80;4.13;;;;;;;8.18;83.20;101343.63;10570677;28;20410;-77
2022/09/02 19:09:40;;;;;;;6.78;4.20;;;;;;;8.09;83.73;101348.66;10571849;28;20042;-76
2022/09/02 19:14:42;;;;;;;5.40;3.40;;;;;;;7.96;84.09;101347.06;10609065;28;20054;-76
2022/09/02 19:19:44;;;;;;;5.05;2.80;;;;;;;7.93;83.31;101341.25;10570889;28;20435;-76
2022/09/02 19:24:55;;;;;;;6.47;2.65;;;;;;;7.88;83.00;101350.19;10569039;28;20040;-76
2022/09/02 19:30:11;;;;;;;4.10;2.85;;;;;;;7.80;83.21;101350.59;10567425;28;20501;-76
2022/09/02 19:35:17;;;;;;;4.20;2.70;;;;;;;7.80;83.54;101347.84;10565615;28;20047;-77
2022/09/02 19:40:23;;;;;;;4.75;2.53;;;;;;;7.97;83.26;101356.91;10574489;28;20047;-76
2022/09/02 19:45:27;;;;;;;5.72;3.03;;;;;;;7.80;83.21;101356.03;10579810;28;20051;-76
2022/09/02 19:50:34;;;;;;;4.40;2.83;;;;;;;7.67;83.16;101349.00;10571889;28;20075;-76
2022/09/02 19:55:36;;;;;;;4.72;2.97;;;;;;;7.65;82.95;101350.31;10598914;28;20055;-76
2022/09/02 20:00:41;;;;;;;4.05;3.15;;;;;;;7.70;82.71;101358.59;10603760;28;20623;-78
2022/09/02 20:05:43;;;;;;;6.70;3.13;;;;;;;7.69;82.59;101348.75;10557122;28;20047;-77
2022/09/02 20:10:54;;;;;;;4.88;2.88;;;;;;;7.88;81.98;101358.41;10561861;28;20028;-78
2022/09/02 20:15:57;;;;;;;4.38;2.05;;;;;;;7.86;82.29;101357.81;10545891;28;20437;-76
2022/09/02 20:21:04;;;;;;;3.70;2.55;;;;;;;7.81;82.75;101357.72;10578805;28;20035;-76
2022/09/02 20:26:25;;;;;;;4.03;2.45;;;;;;;7.79;82.32;101357.94;10573904;28;20047;-76
2022/09/02 20:31:51;;;;;;;3.22;2.00;;;;;;;7.78;82.18;101359.03;10571387;28;20032;-76
2022/09/02 20:37:03;;;;;;;4.38;2.35;;;;;;;7.70;81.47;101355.88;10551569;28;20047;-76
2022/09/02 20:42:33;;;;;;;3.63;1.98;;;;;;;7.52;81.60;101355.00;10574290;28;20044;-76
2022/09/02 20:48:09;;;;;;;2.55;1.88;;;;;;;7.32;81.85;101362.78;10572751;28;20048;-75
2022/09/02 20:53:30;;;;;;;2.53;1.80;;;;;;;7.16;81.72;101360.81;10580595;28;20423;-76
2022/09/02 20:58:54;;;;;;;2.65;1.83;;;;;;;7.07;81.85;101359.50;10579248;28;20824;-76
2022/09/02 21:04:11;;;;;;;3.28;1.70;;;;;;;6.96;81.96;101369.38;10604724;28;20040;-76
2022/09/02 21:09:37;;;;;;;3.28;1.60;;;;;;;6.91;82.95;101363.81;10578654;28;20031;-76
2022/09/02 21:14:50;;;;;;;5.43;1.90;;;;;;;6.89;83.11;101379.59;10607796;28;20055;-76
2022/09/02 21:20:02;;;;;;;2.35;1.30;;;;;;;6.80;83.67;101370.13;10605593;28;20050;-76
2022/09/02 21:25:13;;;;;;;2.53;1.50;;;;;;;6.79;84.11;101373.91;10585180;28;20573;-76
2022/09/02 21:30:24;;;;;;;2.17;1.60;;;;;;;6.77;84.17;101376.03;10574204;28;20055;-76
2022/09/02 21:35:43;;;;;;;3.15;1.70;;;;;;;6.75;83.99;101373.53;10572750;28;20068;-76
2022/09/02 21:40:45;;;;;;;2.88;1.60;;;;;;;6.63;84.31;101380.91;10555599;28;20568;-76
2022/09/02 21:46:09;;;;;;;3.88;2.13;;;;;;;6.56;85.11;101378.28;10573574;28;20066;-76
2022/09/02 21:51:17;;;;;;;6.57;2.95;;;;;;;6.50;85.01;101381.13;10571900;28;20048;-76
2022/09/02 21:57:02;;;;;;;3.63;2.33;;;;;;;6.43;85.85;101377.69;10594686;28;20409;-76
2022/09/02 22:02:18;;;;;;;3.92;2.33;;;;;;;6.35;85.96;101371.50;10562652;28;20536;-76
2022/09/02 22:07:37;;;;;;;3.85;2.30;;;;;;;6.22;86.61;101369.00;10586770;27;20051;-76
2022/09/02 22:13:09;;;;;;;5.20;2.97;;;;;;;6.17;86.37;101371.59;10604891;28;20051;-76
2022/09/02 22:18:36;;;;;;;4.72;2.45;;;;;;;6.10;86.97;101379.06;10580631;28;20040;-76
2022/09/02 22:23:40;;;;;;;2.60;2.10;;;;;;;6.01;86.91;101372.28;10577324;28;20055;-76
2022/09/02 22:28:49;;;;;;;5.30;2.53;;;;;;;6.00;87.63;101376.06;10584258;28;20055;-76
2022/09/02 22:33:55;;;;;;;4.75;2.55;;;;;;;6.00;87.21;101376.91;10570640;28;20044;-76
2022/09/02 22:39:00;;;;;;;4.25;2.53;;;;;;;5.97;88.18;101381.97;10595290;28;20050;-76
2022/09/02 22:44:02;;;;;;;6.45;2.45;;;;;;;5.94;87.61;101371.56;10589961;28;20040;-76
2022/09/02 22:54:30;;;;;;;3.55;2.58;;;;;;;5.79;87.96;101379.28;10579279;28;20043;-75
2022/09/02 22:59:51;;;;;;;2.55;1.88;;;;;;;5.75;88.65;101382.47;10602850;28;20036;-76
2022/09/02 23:10:49;;;;;;;3.33;1.80;;;;;;;5.68;88.91;101386.34;10586239;28;20510;-75
2022/09/02 23:16:20;;;;;;;2.03;1.45;;;;;;;5.66;88.17;101388.47;10581117;28;20395;-76
2022/09/02 23:21:36;;;;;;;2.38;1.70;;;;;;;5.61;88.63;101382.88;10575674;28;20048;-76
2022/09/02 23:26:48;;;;;;;3.45;1.83;;;;;;;5.53;88.58;101378.56;10570100;28;20039;-76
2022/09/02 23:32:19;;;;;;;2.28;1.40;;;;;;;5.49;88.62;101391.00;10579832;28;20050;-76
2022/09/02 23:37:46;;;;;;;3.10;1.40;;;;;;;5.44;88.68;101386.25;10583040;28;20047;-76
2022/09/02 23:42:49;;;;;;;3.58;2.22;;;;;;;5.45;88.99;101389.78;10586963;28;20488;-76
2022/09/02 23:48:06;;;;;;;3.42;1.58;;;;;;;5.40;89.70;101386.94;10594501;28;20059;-76
2022/09/02 23:53:14;;;;;;;2.88;1.48;;;;;;;5.36;89.22;101394.69;10597562;28;20490;-76
2022/09/02 23:58:27;;;;;;;4.30;1.77;;;;;;;5.36;89.28;101396.59;10588846;28;20426;-76
